Time;durP1;ratioP1;P1;durP2;ratioP2;P2;SDS_P1;SDS_P2;PMS_P1;PMS_P2;Temp;Humidity;BMP_temperature;BMP_pressure;BME280_temperature;BME280_humidity;BME280_pressure;Samples;Min_cycle;Max_cycle;Signal;HPM_P1;HPM_P2
2024/03/05 09:06:27;;;;;;;;;;;;;;;6.97;100.00;99443.69;5008461;28;19977;-92
2024/03/05 09:08:52;;;;;;;;;;;;;;;6.97;100.00;99436.63;5005465;28;19921;-91
2024/03/05 09:11:21;;;;;;;;;;;;;;;7.67;100.00;99432.44;4997206;28;20277;-93
2024/03/05 09:13:47;;;;;;;;;;;;;;;7.71;100.00;99431.44;5013951;28;19921;-93
2024/03/05 09:16:12;;;;;;;;;;;;;;;7.47;100.00;99441.09;5014387;28;19918;-88
2024/03/05 09:18:38;;;;;;;;;;;;;;;7.38;100.00;99442.25;5013139;28;19925;-89
2024/03/05 09:21:03;;;;;;;;;;;;;;;7.34;100.00;99440.66;5015006;28;20280;-93
2024/03/05 09:23:29;;;;;;;;;;;;;;;7.39;100.00;99436.09;4997820;28;20332;-87
2024/03/05 09:25:56;;;;;;;;;;;;;;;7.36;100.00;99435.34;5015836;28;20552;-93
2024/03/05 09:28:21;;;;;;;;;;;;;;;8.06;100.00;99431.88;5013277;28;20357;-84
2024/03/05 09:30:49;;;;;;;;;;;;;;;8.55;100.00;99434.41;5011317;28;19964;-90
2024/03/05 09:33:15;;;;;;;;;;;;;;;7.97;100.00;99445.41;5013426;28;19928;-91
2024/03/05 09:35:43;;;;;;;;;;;;;;;7.64;100.00;99448.38;5015118;28;19921;-93
2024/03/05 09:38:09;;;;;;;;;;;;;;;7.48;100.00;99445.41;5013867;28;20016;-87
2024/03/05 09:40:34;;;;;;;;;;;;;;;7.43;100.00;99437.66;5012986;28;21556;-88
2024/03/05 09:43:03;;;;;;;;;;;;;;;7.39;100.00;99440.50;5013893;28;19931;-92
2024/03/05 09:45:30;;;;;;;;;;;;;;;7.29;100.00;99445.22;5014735;28;19918;-85
2024/03/05 09:47:58;;;;;;;;;;;;;;;7.27;100.00;99436.50;4997175;28;19920;-91
2024/03/05 09:50:24;;;;;;;;;;;;;;;7.30;100.00;99451.34;5013248;28;19925;-92
2024/03/05 09:52:52;;;;;;;;;;;;;;;7.21;100.00;99447.25;5014047;28;19960;-93
2024/03/05 09:55:19;;;;;;;;;;;;;;;7.18;100.00;99450.00;4996711;28;20392;-92
2024/03/05 09:57:49;;;;;;;;;;;;;;;7.20;100.00;99454.31;5012954;28;20064;-92
2024/03/05 10:00:17;;;;;;;;;;;;;;;7.97;100.00;99443.63;5013320;28;20814;-92
2024/03/05 10:02:46;;;;;;;;;;;;;;;7.96;100.00;99446.31;5011862;28;19917;-91
2024/03/05 10:05:15;;;;;;;;;;;;;;;8.11;100.00;99448.41;5013005;28;20311;-91
2024/03/05 10:07:40;;;;;;;;;;;;;;;8.26;100.00;99454.00;5012727;28;19949;-92
2024/03/05 10:10:18;;;;;;;;;;;;;;;8.35;100.00;99448.38;4997161;28;19926;-94
2024/03/05 10:12:44;;;;;;;;;;;;;;;8.43;100.00;99446.31;5012953;28;19917;-92
2024/03/05 10:15:24;;;;;;;;;;;;;;;8.49;100.00;99445.22;5012744;28;19922;-90
2024/03/05 10:17:52;;;;;;;;;;;;;;;8.56;100.00;99445.84;5024371;23;19968;-92
2024/03/05 10:20:31;;;;;;;;;;;;;;;8.60;100.00;99445.66;4979380;28;19934;-92
2024/03/05 10:22:57;;;;;;;;;;;;;;;8.68;100.00;99450.59;4975642;28;19929;-87
2024/03/05 10:25:23;;;;;;;;;;;;;;;8.71;100.00;99450.47;4994235;28;20000;-90
2024/03/05 10:27:52;;;;;;;;;;;;;;;8.74;100.00;99450.34;4979955;28;20364;-96
2024/03/05 10:30:25;;;;;;;;;;;;;;;8.77;100.00;99447.59;5001367;28;19961;-93
2024/03/05 10:35:41;;;;;;;;;;;;;;;8.89;100.00;99449.75;5017131;23;19930;-88
2024/03/05 10:38:12;;;;;;;;;;;;;;;8.90;100.00;99446.19;5006277;28;19937;-86
2024/03/05 10:40:39;;;;;;;;;;;;;;;8.95;100.00;99453.06;4985491;28;19922;-89
2024/03/05 10:43:06;;;;;;;;;;;;;;;8.95;100.00;99450.41;5003297;28;20285;-94
2024/03/05 10:45:41;;;;;;;;;;;;;;;8.98;100.00;99452.94;5006339;28;19922;-91
2024/03/05 10:48:12;;;;;;;;;;;;;;;9.01;100.00;99448.34;4988797;28;19922;-94
2024/03/05 10:50:39;;;;;;;;;;;;;;;9.04;100.00;99447.38;5004777;28;19928;-90
2024/03/05 10:53:07;;;;;;;;;;;;;;;9.07;100.00;99449.91;4986004;28;19918;-90
2024/03/05 11:01:09;;;;;;;;;;;;;;;9.21;100.00;99444.88;5006789;28;20133;-93
2024/03/05 11:06:25;;;;;;;;;;;;;;;9.23;100.00;99442.19;5122036;22;20017;-92
2024/03/05 11:08:50;;;;;;;;;;;;;;;9.24;100.00;99435.97;4972143;28;19937;-93
2024/03/05 11:11:23;;;;;;;;;;;;;;;9.25;100.00;99443.84;4975337;28;19922;-87
2024/03/05 11:14:06;;;;;;;;;;;;;;;9.29;100.00;99435.78;5017300;23;19926;-89
2024/03/05 11:16:33;;;;;;;;;;;;;;;9.30;100.00;99442.78;4981421;28;19922;-94
2024/03/05 11:18:59;;;;;;;;;;;;;;;9.30;100.00;99432.19;4988359;23;19933;-90
2024/03/05 11:21:25;;;;;;;;;;;;;;;9.33;100.00;99438.22;4993150;28;19925;-91
2024/03/05 11:23:54;;;;;;;;;;;;;;;9.34;100.00;99433.78;4995705;28;19932;-87
2024/03/05 11:35:19;;;;;;;;;;;;;;;9.41;100.00;99424.66;5307547;23;19925;-90
2024/03/05 11:37:51;;;;;;;;;;;;;;;9.42;100.00;99421.94;5053239;28;19963;-89
2024/03/05 11:40:17;;;;;;;;;;;;;;;9.44;100.00;99427.16;5024807;28;19927;-92
2024/03/05 11:42:46;;;;;;;;;;;;;;;9.45;100.00;99418.31;5024873;28;19921;-93
2024/03/05 11:45:31;;;;;;;;;;;;;;;9.48;100.00;99418.19;5049611;28;19928;-91
2024/03/05 11:53:55;;;;;;;;;;;;;;;9.52;100.00;99409.16;5027782;23;20415;-90
2024/03/05 11:56:20;;;;;;;;;;;;;;;9.52;100.00;99411.81;4975891;28;19922;-91
2024/03/05 11:58:45;;;;;;;;;;;;;;;9.55;100.00;99414.31;4977245;28;20397;-91
2024/03/05 12:01:14;;;;;;;;;;;;;;;9.57;100.00;99408.97;4979124;28;19925;-90
2024/03/05 12:03:39;;;;;;;;;;;;;;;9.57;100.00;99409.84;4988106;23;19921;-93
2024/03/05 12:06:06;;;;;;;;;;;;;;;9.59;100.00;99407.13;4999016;28;19936;-89
2024/03/05 12:08:33;;;;;;;;;;;;;;;9.59;100.00;99407.97;5017176;28;20276;-94
2024/03/05 12:11:04;;;;;;;;;;;;;;;9.59;100.00;99400.06;5015630;28;19921;-90
2024/03/05 12:13:31;;;;;;;;;;;;;;;9.61;100.00;99400.81;5015549;28;20265;-92
2024/03/05 12:16:06;;;;;;;;;;;;;;;9.63;100.00;99409.53;5014174;28;20004;-91
2024/03/05 12:18:32;;;;;;;;;;;;;;;9.63;100.00;99406.91;5015055;28;19928;-91
2024/03/05 12:20:57;;;;;;;;;;;;;;;9.66;100.00;99402.41;5015797;28;20474;-90
2024/03/05 12:23:22;;;;;;;;;;;;;;;9.66;100.00;99405.91;4998558;28;19922;-91
2024/03/05 12:25:47;;;;;;;;;;;;;;;9.69;100.00;99410.22;5015859;28;20000;-91
2024/03/05 12:28:13;;;;;;;;;;;;;;;9.68;100.00;99412.00;5016056;28;19917;-92
2024/03/05 12:30:38;;;;;;;;;;;;;;;9.70;100.00;99403.97;4998200;28;19921;-92
2024/03/05 12:33:45;;;;;;;;;;;;;;;9.69;100.00;99404.94;4998977;28;20264;-91
2024/03/05 12:36:14;;;;;;;;;;;;;;;9.73;100.00;99406.50;4994325;28;19940;-90
2024/03/05 12:38:40;;;;;;;;;;;;;;;9.74;100.00;99410.88;5014506;28;19929;-91
2024/03/05 12:41:05;;;;;;;;;;;;;;;9.73;100.00;99415.31;5013044;28;19926;-91
2024/03/05 12:43:30;;;;;;;;;;;;;;;9.75;100.00;99410.78;5015493;28;19992;-94
2024/03/05 12:46:04;;;;;;;;;;;;;;;9.76;100.00;99417.78;4998482;28;19921;-91
2024/03/05 12:48:32;;;;;;;;;;;;;;;9.77;100.00;99413.38;5015600;28;20327;-91
2024/03/05 12:51:03;;;;;;;;;;;;;;;9.80;100.00;99415.88;5015464;28;19980;-96
2024/03/05 12:53:33;;;;;;;;;;;;;;;9.79;100.00;99415.00;5014808;28;19967;-86
2024/03/05 12:55:59;;;;;;;;;;;;;;;9.80;100.00;99415.88;4998014;28;19976;-93
2024/03/05 12:58:24;;;;;;;;;;;;;;;9.82;100.00;99416.66;4999027;28;19921;-94
2024/03/05 13:00:49;;;;;;;;;;;;;;;9.81;100.00;99417.56;5015544;28;19924;-95
2024/03/05 13:03:16;;;;;;;;;;;;;;;9.82;100.00;99416.66;5013872;28;19949;-95
2024/03/05 13:05:41;;;;;;;;;;;;;;;9.84;100.00;99414.78;5000264;28;19922;-94
2024/03/05 13:08:07;;;;;;;;;;;;;;;9.86;100.00;99426.19;4997778;28;19975;-95
2024/03/05 13:10:35;;;;;;;;;;;;;;;9.86;100.00;99426.19;5014621;28;19924;-93
2024/03/05 13:13:01;;;;;;;;;;;;;;;9.87;100.00;99419.94;5015194;28;19929;-92
2024/03/05 13:15:26;;;;;;;;;;;;;;;9.86;100.00;99415.59;4995820;28;19917;-94
2024/03/05 13:17:52;;;;;;;;;;;;;;;9.88;100.00;99420.81;5014225;28;19921;-94
2024/03/05 13:20:20;;;;;;;;;;;;;;;9.88;100.00;99419.03;5015328;28;19924;-90
2024/03/05 13:22:48;;;;;;;;;;;;;;;9.89;100.00;99411.94;4997857;28;20004;-87
2024/03/05 13:25:15;;;;;;;;;;;;;;;9.90;100.00;99417.16;5015574;28;19925;-92
2024/03/05 13:27:50;;;;;;;;;;;;;;;9.89;100.00;99415.47;5015811;28;20419;-93
2024/03/05 13:30:17;;;;;;;;;;;;;;;9.91;100.00;99415.41;4998574;28;20322;-93
2024/03/05 13:32:46;;;;;;;;;;;;;;;9.91;100.00;99418.91;4996709;28;19928;-88
2024/03/05 13:35:13;;;;;;;;;;;;;;;9.93;100.00;99414.38;5014274;28;19918;-92
2024/03/05 13:37:38;;;;;;;;;;;;;;;9.92;100.00;99420.59;4996577;28;19930;-93
2024/03/05 13:40:24;;;;;;;;;;;;;;;9.93;100.00;99417.03;5012956;28;19925;-93
2024/03/05 13:42:49;;;;;;;;;;;;;;;9.96;100.00;99416.88;4999386;28;19921;-93
2024/03/05 13:45:18;;;;;;;;;;;;;;;9.96;100.00;99419.53;5014483;28;19925;-92
2024/03/05 13:47:44;;;;;;;;;;;;;;;9.97;100.00;99428.31;5013670;28;19995;-94
2024/03/05 13:50:12;;;;;;;;;;;;;;;10.00;100.00;99444.94;5013896;28;19926;-93
2024/03/05 13:52:41;;;;;;;;;;;;;;;10.03;100.00;99446.56;5012362;28;20368;-93
2024/03/05 13:55:09;;;;;;;;;;;;;;;10.04;100.00;99444.81;4996318;28;20320;-94
2024/03/05 13:57:35;;;;;;;;;;;;;;;10.03;100.00;99440.44;5012965;28;19917;-96
2024/03/05 14:00:02;;;;;;;;;;;;;;;10.02;100.00;99420.16;5018024;28;19928;-96
2024/03/05 14:02:27;;;;;;;;;;;;;;;10.04;100.00;99410.41;4999085;28;19921;-92
2024/03/05 14:04:53;;;;;;;;;;;;;;;10.04;100.00;99413.03;4999086;28;20336;-93
2024/03/05 14:07:18;;;;;;;;;;;;;;;10.02;100.00;99413.13;4999679;28;20016;-96
2024/03/05 14:09:45;;;;;;;;;;;;;;;10.05;100.00;99409.44;5000155;28;19929;-94
2024/03/05 14:12:11;;;;;;;;;;;;;;;10.05;100.00;99412.97;5016525;28;19926;-93
2024/03/05 14:14:36;;;;;;;;;;;;;;;10.05;100.00;99409.44;5017036;28;20395;-92
2024/03/05 14:17:01;;;;;;;;;;;;;;;10.06;100.00;99411.16;4998418;28;19932;-91
2024/03/05 14:19:27;;;;;;;;;;;;;;;10.06;100.00;99412.03;4999162;28;19925;-95
2024/03/05 14:21:52;;;;;;;;;;;;;;;10.07;100.00;99402.28;5014587;28;19925;-95
2024/03/05 14:24:18;;;;;;;;;;;;;;;10.08;100.00;99410.16;5016219;28;19953;-96
2024/03/05 14:26:43;;;;;;;;;;;;;;;10.09;100.00;99408.38;5014322;28;19927;-95
2024/03/05 14:29:08;;;;;;;;;;;;;;;10.10;100.00;99410.09;5015597;28;19922;-95
2024/03/05 14:31:34;;;;;;;;;;;;;;;10.10;100.00;99412.72;5014575;28;19926;-95
2024/03/05 14:33:59;;;;;;;;;;;;;;;10.10;100.00;99407.44;5012034;28;20025;-95
2024/03/05 14:36:25;;;;;;;;;;;;;;;10.11;100.00;99410.00;4997065;28;20051;-93
2024/03/05 14:38:50;;;;;;;;;;;;;;;10.11;100.00;99407.34;4998033;28;19926;-95
2024/03/05 14:41:15;;;;;;;;;;;;;;;10.13;100.00;99409.94;5015175;28;20443;-95
2024/03/05 14:43:40;;;;;;;;;;;;;;;10.13;100.00;99400.22;5015149;28;19921;-95
2024/03/05 14:46:06;;;;;;;;;;;;;;;10.15;100.00;99414.25;5014002;28;19930;-95
2024/03/05 14:48:32;;;;;;;;;;;;;;;10.14;100.00;99407.22;5010433;28;20435;-92
2024/03/05 14:50:58;;;;;;;;;;;;;;;10.15;100.00;99405.44;5014733;28;20376;-94
2024/03/05 14:53:23;;;;;;;;;;;;;;;10.18;100.00;99413.25;4996437;28;19946;-91
2024/03/05 14:55:48;;;;;;;;;;;;;;;10.17;100.00;99417.66;5012352;28;19929;-92
2024/03/05 14:58:14;;;;;;;;;;;;;;;10.17;100.00;99420.31;5012262;28;19944;-91
2024/03/05 15:00:41;;;;;;;;;;;;;;;10.19;100.00;99420.25;4994962;28;20016;-91
2024/03/05 15:03:12;;;;;;;;;;;;;;;10.20;100.00;99427.28;5010185;28;19979;-91
2024/03/05 15:05:37;;;;;;;;;;;;;;;10.20;100.00;99440.50;5035083;28;20450;-92
2024/03/05 15:08:03;;;;;;;;;;;;;;;10.20;100.00;99434.38;4995359;28;19926;-91
2024/03/05 15:10:28;;;;;;;;;;;;;;;10.20;100.00;99426.41;4995270;28;20288;-91
2024/03/05 15:12:54;;;;;;;;;;;;;;;10.21;100.00;99430.75;5010342;28;19956;-92
2024/03/05 15:15:20;;;;;;;;;;;;;;;10.21;100.00;99434.28;5012277;28;19983;-90
2024/03/05 15:17:47;;;;;;;;;;;;;;;10.22;100.00;99433.34;4993330;28;19921;-92
2024/03/05 15:20:15;;;;;;;;;;;;;;;10.22;100.00;99427.19;5012854;28;19921;-91
2024/03/05 15:22:41;;;;;;;;;;;;;;;10.21;100.00;99429.00;5011413;28;19957;-91
2024/03/05 15:25:10;;;;;;;;;;;;;;;10.24;100.00;99430.63;4994255;28;19917;-94
2024/03/05 15:27:39;;;;;;;;;;;;;;;10.23;100.00;99419.19;5012779;28;19924;-92
2024/03/05 15:30:12;;;;;;;;;;;;;;;10.23;100.00;99420.94;4995016;28;19960;-91
2024/03/05 15:32:38;;;;;;;;;;;;;;;10.26;100.00;99423.44;4994805;28;19917;-94
2024/03/05 15:35:03;;;;;;;;;;;;;;;10.24;100.00;99420.88;4994389;28;19914;-91
2024/03/05 15:37:28;;;;;;;;;;;;;;;10.25;100.00;99419.13;5011467;28;19932;-92
2024/03/05 15:39:57;;;;;;;;;;;;;;;10.25;100.00;99433.19;5011016;28;19964;-95
2024/03/05 15:42:22;;;;;;;;;;;;;;;10.24;100.00;99420.88;4996192;28;19959;-91
2024/03/05 15:44:47;;;;;;;;;;;;;;;10.27;100.00;99422.53;5012563;28;19960;-91
2024/03/05 15:47:13;;;;;;;;;;;;;;;10.27;100.00;99425.19;5013408;28;19965;-88
2024/03/05 15:49:38;;;;;;;;;;;;;;;10.27;100.00;99422.53;5011957;28;19924;-94
2024/03/05 15:52:04;;;;;;;;;;;;;;;10.28;100.00;99434.84;5012457;28;20316;-95
2024/03/05 15:54:29;;;;;;;;;;;;;;;10.28;100.00;99435.69;5014644;28;19921;-94
2024/03/05 15:56:58;;;;;;;;;;;;;;;10.28;100.00;99435.69;4994997;28;19918;-95
2024/03/05 16:02:07;;;;;;;;;;;;;;;10.30;100.00;99440.94;5016953;28;19928;-93
2024/03/05 16:04:33;;;;;;;;;;;;;;;10.29;100.00;99432.13;5011503;28;19921;-92
2024/03/05 16:06:59;;;;;;;;;;;;;;;10.29;100.00;99436.56;5010033;28;20434;-88
2024/03/05 16:09:25;;;;;;;;;;;;;;;10.29;100.00;99444.50;5013637;28;19949;-90
2024/03/05 16:11:50;;;;;;;;;;;;;;;10.31;100.00;99454.09;5011257;28;19922;-92
2024/03/05 16:14:16;;;;;;;;;;;;;;;10.31;100.00;99464.69;4996995;28;19947;-91
2024/03/05 16:16:42;;;;;;;;;;;;;;;10.31;100.00;99469.13;5013687;28;20019;-92
2024/03/05 16:19:08;;;;;;;;;;;;;;;10.31;100.00;99464.69;4993016;28;20383;-89
2024/03/05 16:21:38;;;;;;;;;;;;;;;10.32;100.00;99465.53;4995935;28;20052;-94
2024/03/05 16:24:04;;;;;;;;;;;;;;;10.32;100.00;99471.75;5008330;28;19922;-90
2024/03/05 16:26:30;;;;;;;;;;;;;;;10.31;100.00;99466.50;5011456;28;20015;-89
2024/03/05 16:29:03;;;;;;;;;;;;;;;10.32;100.00;99470.84;4995360;28;19925;-91
2024/03/05 16:31:28;;;;;;;;;;;;;;;10.32;100.00;99482.34;4994180;28;19921;-92
2024/03/05 16:33:54;;;;;;;;;;;;;;;10.32;100.00;99482.34;4994880;28;19929;-91
2024/03/05 16:36:21;;;;;;;;;;;;;;;10.34;100.00;99482.28;5014232;28;20439;-91
2024/03/05 16:38:46;;;;;;;;;;;;;;;10.34;100.00;99483.13;4997925;28;19933;-91
2024/03/05 16:43:57;;;;;;;;;;;;;;;10.34;100.00;99485.78;5189399;23;19958;-88
2024/03/05 16:46:27;;;;;;;;;;;;;;;10.35;100.00;99486.63;5007868;28;19917;-93
2024/03/05 16:49:03;;;;;;;;;;;;;;;10.34;100.00;99483.13;5005516;28;19963;-91
2024/03/05 16:51:32;;;;;;;;;;;;;;;10.35;100.00;99491.91;5007870;28;19963;-91
2024/03/05 16:53:57;;;;;;;;;;;;;;;10.35;100.00;99498.09;5025234;28;19921;-91
2024/03/05 16:56:22;;;;;;;;;;;;;;;10.35;100.00;99490.16;5011355;28;19941;-91
2024/03/05 16:58:51;;;;;;;;;;;;;;;10.36;100.00;99494.50;5030797;28;19917;-91
2024/03/05 17:01:35;;;;;;;;;;;;;;;10.35;100.00;99500.75;5024864;28;20020;-93
2024/03/05 17:04:03;;;;;;;;;;;;;;;10.38;100.00;99493.56;5027546;28;19960;-93
2024/03/05 17:06:28;;;;;;;;;;;;;;;10.36;100.00;99494.50;5029602;28;19921;-90
2024/03/05 17:08:55;;;;;;;;;;;;;;;10.35;100.00;99500.75;5031163;28;19917;-92
2024/03/05 17:11:22;;;;;;;;;;;;;;;10.37;100.00;99495.38;5016231;28;20438;-93
2024/03/05 17:14:02;;;;;;;;;;;;;;;10.39;100.00;99497.91;5026844;28;19979;-95
2024/03/05 17:16:44;;;;;;;;;;;;;;;10.38;100.00;99496.22;5027176;28;19917;-89
2024/03/05 17:19:11;;;;;;;;;;;;;;;10.39;100.00;99503.22;5026093;28;19921;-88
2024/03/05 17:21:49;;;;;;;;;;;;;;;10.39;100.00;99497.91;5025530;28;19921;-91
2024/03/05 17:24:14;;;;;;;;;;;;;;;10.38;100.00;99505.00;5024425;28;19917;-91
2024/03/05 17:26:40;;;;;;;;;;;;;;;10.41;100.00;99511.97;5024743;28;19940;-89
2024/03/05 17:29:09;;;;;;;;;;;;;;;10.40;100.00;99502.28;5028011;28;19925;-89
2024/03/05 17:31:35;;;;;;;;;;;;;;;10.42;100.00;99513.66;5028718;28;19917;-89
2024/03/05 17:34:01;;;;;;;;;;;;;;;10.41;100.00;99514.63;5023788;28;19927;-85
2024/03/05 17:36:26;;;;;;;;;;;;;;;10.40;100.00;99520.84;5007753;28;19957;-91
2024/03/05 17:38:51;;;;;;;;;;;;;;;10.41;100.00;99519.91;5027952;28;19917;-90
2024/03/05 17:41:17;;;;;;;;;;;;;;;10.41;100.00;99526.06;5007675;28;20381;-87
2024/03/05 17:43:43;;;;;;;;;;;;;;;10.41;100.00;99528.72;5011137;28;19921;-90
2024/03/05 17:46:09;;;;;;;;;;;;;;;10.43;100.00;99533.94;5008792;28;20258;-90
2024/03/05 17:48:35;;;;;;;;;;;;;;;10.43;100.00;99536.59;5022411;28;20701;-87
2024/03/05 17:51:00;;;;;;;;;;;;;;;10.41;100.00;99539.31;5024641;28;19917;-92
2024/03/05 17:53:25;;;;;;;;;;;;;;;10.41;100.00;99541.09;5023737;28;19921;-89
2024/03/05 17:55:51;;;;;;;;;;;;;;;10.42;100.00;99540.16;5023906;28;19975;-87
2024/03/05 17:58:18;;;;;;;;;;;;;;;10.43;100.00;99539.25;5024060;28;19917;-87
2024/03/05 18:00:46;;;;;;;;;;;;;;;10.64;100.00;99546.19;5023905;28;19965;-87
2024/03/05 18:03:12;;;;;;;;;;;;;;;10.51;100.00;99547.69;5022482;28;19967;-85
2024/03/05 18:05:37;;;;;;;;;;;;;;;10.49;100.00;99553.03;5024064;28;19925;-87
2024/03/05 18:08:03;;;;;;;;;;;;;;;10.47;100.00;99549.63;5006286;28;19928;-86
2024/03/05 18:10:29;;;;;;;;;;;;;;;10.48;100.00;99555.78;5022247;28;19917;-85
2024/03/05 18:12:54;;;;;;;;;;;;;;;10.49;100.00;99557.50;5023614;28;19917;-86
2024/03/05 18:15:20;;;;;;;;;;;;;;;10.50;100.00;99552.13;5024927;28;19924;-87
2024/03/05 18:17:50;;;;;;;;;;;;;;;10.46;100.00;99555.84;5022876;28;19921;-86
2024/03/05 18:20:16;;;;;;;;;;;;;;;10.43;100.00;99561.28;5023068;28;19925;-86
2024/03/05 18:22:41;;;;;;;;;;;;;;;10.38;100.00;99562.44;5023319;28;19917;-87
2024/03/05 18:25:19;;;;;;;;;;;;;;;10.32;100.00;99563.53;5023304;28;20331;-88
2024/03/05 18:27:55;;;;;;;;;;;;;;;10.22;100.00;99555.13;5023090;28;20004;-86
2024/03/05 18:30:24;;;;;;;;;;;;;;;10.13;100.00;99561.72;5022195;28;19925;-89
2024/03/05 18:32:52;;;;;;;;;;;;;;;10.04;100.00;99562.13;5020039;28;19921;-88
2024/03/05 18:35:19;;;;;;;;;;;;;;;9.89;100.00;99565.44;5005350;28;19957;-86
2024/03/05 18:37:45;;;;;;;;;;;;;;;9.79;100.00;99572.91;5005768;28;19956;-89
2024/03/05 18:40:13;;;;;;;;;;;;;;;9.65;100.00;99578.78;5004321;28;20391;-88
2024/03/05 18:42:41;;;;;;;;;;;;;;;9.52;100.00;99578.44;5023636;28;19943;-86
2024/03/05 18:45:06;;;;;;;;;;;;;;;9.42;100.00;99577.13;5023088;28;20011;-86
2024/03/05 18:47:31;;;;;;;;;;;;;;;9.30;100.00;99573.19;5021946;28;19921;-91
2024/03/05 18:49:57;;;;;;;;;;;;;;;9.29;100.00;99578.56;5023188;28;20348;-87
2024/03/05 18:52:22;;;;;;;;;;;;;;;9.18;100.00;99582.47;5005745;28;20453;-86
2024/03/05 18:54:48;;;;;;;;;;;;;;;9.07;100.00;99589.97;5004326;28;20000;-87
2024/03/05 18:57:14;;;;;;;;;;;;;;;9.01;100.00;99590.22;5022602;28;19921;-87
2024/03/05 18:59:40;;;;;;;;;;;;;;;9.00;100.00;99593.78;5022274;28;19928;-87
2024/03/05 19:02:05;;;;;;;;;;;;;;;8.95;100.00;99601.03;5021624;28;19917;-88
2024/03/05 19:04:30;;;;;;;;;;;;;;;8.93;100.00;99598.44;5022619;28;19921;-90
2024/03/05 19:06:55;;;;;;;;;;;;;;;8.89;100.00;99596.88;5022692;28;20340;-88
2024/03/05 19:09:20;;;;;;;;;;;;;;;8.89;100.00;99600.34;5020943;28;20581;-88
2024/03/05 19:11:46;;;;;;;;;;;;;;;8.89;100.00;99603.00;5022472;28;20383;-89
2024/03/05 19:14:12;;;;;;;;;;;;;;;8.94;100.00;99605.47;5022721;28;20400;-86
2024/03/05 19:16:37;;;;;;;;;;;;;;;8.94;100.00;99601.97;5022522;28;19921;-86
2024/03/05 19:19:03;;;;;;;;;;;;;;;8.97;100.00;99607.13;5021530;28;19917;-89
2024/03/05 19:21:29;;;;;;;;;;;;;;;8.96;100.00;99605.41;5005062;28;19929;-90
2024/03/05 19:23:54;;;;;;;;;;;;;;;8.99;100.00;99602.66;5022960;28;19924;-87
2024/03/05 19:26:19;;;;;;;;;;;;;;;9.01;100.00;99598.16;5022382;28;19917;-87
2024/03/05 19:28:45;;;;;;;;;;;;;;;9.04;100.00;99603.31;5022106;28;20016;-89
2024/03/05 19:31:10;;;;;;;;;;;;;;;9.09;100.00;99604.00;5020934;28;19918;-90
2024/03/05 19:33:35;;;;;;;;;;;;;;;9.17;100.00;99607.19;5003861;28;20325;-88
2024/03/05 19:36:01;;;;;;;;;;;;;;;9.22;100.00;99605.25;5022248;28;20006;-88
2024/03/05 19:38:27;;;;;;;;;;;;;;;9.24;100.00;99608.69;5022598;28;19921;-90
2024/03/05 19:40:53;;;;;;;;;;;;;;;9.29;100.00;99602.34;5021868;28;19921;-93
2024/03/05 19:43:18;;;;;;;;;;;;;;;9.34;100.00;99603.03;5004547;28;19925;-86
2024/03/05 19:45:45;;;;;;;;;;;;;;;9.47;100.00;99603.38;5004586;28;19928;-83
2024/03/05 19:48:10;;;;;;;;;;;;;;;9.14;100.00;99607.31;5021323;28;19917;-89
2024/03/05 19:50:35;;;;;;;;;;;;;;;8.48;100.00;99609.84;5021486;28;20287;-87
2024/03/05 19:53:02;;;;;;;;;;;;;;;8.16;100.00;99612.69;5023151;28;20369;-89
2024/03/05 19:55:27;;;;;;;;;;;;;;;8.02;100.00;99614.13;5003440;28;19918;-89
2024/03/05 19:57:53;;;;;;;;;;;;;;;8.07;100.00;99612.16;5021978;28;20393;-89
2024/03/05 20:00:22;;;;;;;;;;;;;;;8.14;100.00;99614.53;5021825;28;20476;-88
2024/03/05 20:02:48;;;;;;;;;;;;;;;8.12;100.00;99616.38;5019891;28;19917;-88
2024/03/05 20:05:16;;;;;;;;;;;;;;;8.06;100.00;99611.31;5022586;28;19925;-88
2024/03/05 20:07:42;;;;;;;;;;;;;;;8.02;100.00;99603.56;5021616;28;19990;-89
2024/03/05 20:10:08;;;;;;;;;;;;;;;7.98;100.00;99608.09;5004679;28;20369;-88
2024/03/05 20:12:34;;;;;;;;;;;;;;;7.91;100.00;99615.34;5003823;28;19922;-87
2024/03/05 20:14:59;;;;;;;;;;;;;;;7.90;100.00;99616.28;5021593;28;19970;-89
2024/03/05 20:17:24;;;;;;;;;;;;;;;7.84;100.00;99616.47;5002800;28;19917;-88
2024/03/05 20:19:50;;;;;;;;;;;;;;;7.83;100.00;99620.03;5023435;28;19921;-87
2024/03/05 20:22:15;;;;;;;;;;;;;;;7.80;100.00;99623.66;5025940;28;20390;-88
2024/03/05 20:24:41;;;;;;;;;;;;;;;7.78;100.00;99616.69;5025855;28;19925;-88
2024/03/05 20:27:09;;;;;;;;;;;;;;;7.75;100.00;99619.44;5025256;28;19917;-88
2024/03/05 20:29:34;;;;;;;;;;;;;;;7.73;100.00;99624.75;5025313;28;19917;-87
2024/03/05 20:32:03;;;;;;;;;;;;;;;7.72;100.00;99622.16;5024799;28;19925;-87
2024/03/05 20:34:31;;;;;;;;;;;;;;;7.69;100.00;99617.88;5023917;28;20011;-86
2024/03/05 20:36:58;;;;;;;;;;;;;;;7.62;100.00;99621.63;5025235;28;19917;-88
2024/03/05 20:39:23;;;;;;;;;;;;;;;7.60;100.00;99623.44;5025429;28;19918;-86
2024/03/05 20:41:48;;;;;;;;;;;;;;;7.55;100.00;99625.38;5025738;28;19991;-85
2024/03/05 20:44:14;;;;;;;;;;;;;;;7.50;100.00;99633.44;5025505;28;19921;-87
2024/03/05 20:46:40;;;;;;;;;;;;;;;7.46;100.00;99643.19;5024243;28;19924;-86
2024/03/05 20:49:05;;;;;;;;;;;;;;;7.42;100.00;99646.88;5024996;28;20266;-86
2024/03/05 20:51:30;;;;;;;;;;;;;;;7.40;100.00;99643.44;5024737;28;19921;-86
2024/03/05 20:53:56;;;;;;;;;;;;;;;7.39;100.00;99646.97;5007362;28;19928;-85
2024/03/05 20:56:22;;;;;;;;;;;;;;;7.37;100.00;99643.53;5025316;28;20823;-85
2024/03/05 20:58:47;;;;;;;;;;;;;;;7.38;100.00;99642.59;5024923;28;19982;-84
2024/03/05 21:01:14;;;;;;;;;;;;;;;7.38;100.00;99644.38;5024719;28;19928;-85
2024/03/05 21:03:40;;;;;;;;;;;;;;;7.32;100.00;99655.09;5023764;28;19917;-87
2024/03/05 21:06:06;;;;;;;;;;;;;;;7.34;100.00;99659.44;5007549;28;19921;-87
2024/03/05 21:08:31;;;;;;;;;;;;;;;7.31;100.00;99661.28;5006736;28;19978;-85
2024/03/05 21:10:57;;;;;;;;;;;;;;;7.28;100.00;99659.63;5024668;28;19972;-86
2024/03/05 21:13:25;;;;;;;;;;;;;;;7.34;100.00;99666.47;5025176;28;19921;-86
2024/03/05 21:15:51;;;;;;;;;;;;;;;7.30;100.00;99664.84;5024417;28;20004;-86
2024/03/05 21:18:16;;;;;;;;;;;;;;;7.31;100.00;99663.91;5005567;28;20064;-85
2024/03/05 21:20:41;;;;;;;;;;;;;;;7.23;100.00;99662.41;5024750;28;19982;-86
2024/03/05 21:23:09;;;;;;;;;;;;;;;7.27;100.00;99658.78;5024768;28;19929;-90
2024/03/05 21:25:34;;;;;;;;;;;;;;;7.20;100.00;99662.50;5023656;28;19929;-84
2024/03/05 21:28:00;;;;;;;;;;;;;;;7.23;100.00;99662.41;5024475;28;19913;-85
2024/03/05 21:30:25;;;;;;;;;;;;;;;7.16;100.00;99660.84;5006467;28;19964;-84
2024/03/05 21:32:51;;;;;;;;;;;;;;;7.16;100.00;99660.84;5004902;28;20281;-84
2024/03/05 21:35:16;;;;;;;;;;;;;;;7.15;100.00;99661.78;5006762;28;19917;-85
2024/03/05 21:37:41;;;;;;;;;;;;;;;7.13;100.00;99660.94;5006349;28;19921;-84
2024/03/05 21:40:13;;;;;;;;;;;;;;;7.16;100.00;99660.00;5024072;28;19922;-85
2024/03/05 21:42:41;;;;;;;;;;;;;;;7.17;100.00;99664.38;5006302;28;19924;-85
2024/03/05 21:45:08;;;;;;;;;;;;;;;7.13;100.00;99663.56;5021617;28;19924;-85
2024/03/05 21:47:33;;;;;;;;;;;;;;;7.12;100.00;99659.22;5005248;28;20257;-85
2024/03/05 21:50:00;;;;;;;;;;;;;;;7.12;100.00;99666.28;5019333;28;19931;-85
2024/03/05 21:52:25;;;;;;;;;;;;;;;7.09;100.00;99665.44;5023035;28;19971;-86
2024/03/05 21:54:51;;;;;;;;;;;;;;;7.07;100.00;99671.69;5023719;28;20383;-84
2024/03/05 21:57:17;;;;;;;;;;;;;;;7.05;100.00;99676.13;5024253;28;20157;-84
2024/03/05 21:59:42;;;;;;;;;;;;;;;7.04;100.00;99679.69;5006356;28;19917;-84
2024/03/05 22:02:07;;;;;;;;;;;;;;;7.08;100.00;99676.91;5022430;28;20407;-86
2024/03/05 22:04:32;;;;;;;;;;;;;;;7.06;100.00;99680.50;5023974;28;20016;-86
2024/03/05 22:06:57;;;;;;;;;;;;;;;7.06;100.00;99686.63;5005515;28;19925;-86
2024/03/05 22:09:24;;;;;;;;;;;;;;;7.01;100.00;99685.91;5023636;28;19918;-86
2024/03/05 22:11:49;;;;;;;;;;;;;;;6.99;100.00;99689.47;5023714;28;19956;-87
2024/03/05 22:14:14;;;;;;;;;;;;;;;7.03;100.00;99685.84;5005222;28;20392;-87
2024/03/05 22:16:40;;;;;;;;;;;;;;;7.05;100.00;99690.19;5006076;28;19924;-87
2024/03/05 22:19:08;;;;;;;;;;;;;;;7.03;100.00;99691.13;5004675;28;19925;-85